createdAt,value
2019-03-18T00:00:49.444Z,86.4
2019-03-18T00:01:49.347Z,86.1
2019-03-18T00:02:49.247Z,85.9
2019-03-18T00:03:49.146Z,86.1
2019-03-18T00:04:49.116Z,86
2019-03-18T00:05:49.080Z,86.3
2019-03-18T00:06:49.048Z,86
2019-03-18T00:07:48.973Z,86.3
2019-03-18T00:08:48.867Z,86.5
2019-03-18T00:09:49.198Z,86.3
2019-03-18T00:10:49.100Z,86
2019-03-18T00:11:49.097Z,86.2
2019-03-18T00:12:52.325Z,85.9
2019-03-18T00:13:52.315Z,86.5
2019-03-18T00:15:02.802Z,87.2
2019-03-18T00:16:02.711Z,85.9
2019-03-18T00:17:02.612Z,87.1
2019-03-18T00:18:02.502Z,86.4
2019-03-18T00:19:05.477Z,86.5
2019-03-18T00:20:05.801Z,86.8
2019-03-18T00:21:05.734Z,86.9
2019-03-18T00:22:05.676Z,87
2019-03-18T00:23:05.569Z,86.9
2019-03-18T00:24:05.463Z,87.6
2019-03-18T00:25:05.364Z,87
2019-03-18T00:26:05.264Z,87.2
2019-03-18T00:27:05.161Z,87.3
2019-03-18T00:28:05.069Z,87.2
2019-03-18T00:29:04.958Z,87.3
2019-03-18T00:30:05.367Z,87.1
2019-03-18T00:31:05.254Z,87.8
2019-03-18T00:32:05.149Z,87.5
2019-03-18T00:33:05.121Z,87.5
2019-03-18T00:34:05.047Z,87.5
2019-03-18T00:35:04.955Z,87.4
2019-03-18T00:36:05.101Z,87.2
2019-03-18T00:37:05.014Z,87.7
2019-03-18T00:38:04.960Z,87.6
2019-03-18T00:39:04.864Z,87
2019-03-18T00:40:05.253Z,87.6
2019-03-18T00:41:05.171Z,87.4
2019-03-18T00:42:05.066Z,88
2019-03-18T00:43:04.951Z,87.4
2019-03-18T00:44:04.829Z,87.5
2019-03-18T00:45:16.274Z,87
2019-03-18T00:46:16.187Z,87.7
2019-03-18T00:47:16.071Z,87.5
2019-03-18T00:48:15.971Z,87.8
2019-03-18T00:49:15.865Z,87.9
2019-03-18T00:50:16.204Z,87.7
2019-03-18T00:51:16.115Z,87.9
2019-03-18T00:52:16.073Z,88
2019-03-18T00:53:15.983Z,88.2
2019-03-18T00:54:15.889Z,87.9
2019-03-18T00:55:15.798Z,87.4
2019-03-18T00:56:15.699Z,87.1
2019-03-18T00:57:15.595Z,87.6
2019-03-18T00:58:15.508Z,87.5
2019-03-18T00:59:15.414Z,87.4
2019-03-18T01:00:15.759Z,87.1
2019-03-18T01:01:15.675Z,87.5
2019-03-18T01:02:15.573Z,87.5
2019-03-18T01:03:15.484Z,87.3
2019-03-18T01:04:15.413Z,87.2
2019-03-18T01:05:15.306Z,87.6
2019-03-18T01:06:15.205Z,87.6
2019-03-18T01:07:15.116Z,87.5
2019-03-18T01:08:15.029Z,87.4
2019-03-18T01:09:14.907Z,87.4
2019-03-18T01:10:15.236Z,87.6
2019-03-18T01:11:15.169Z,87.3
2019-03-18T01:12:15.051Z,87.1
2019-03-18T01:13:14.947Z,87.2
2019-03-18T01:14:14.837Z,87.3
2019-03-18T01:15:29.237Z,87.6
2019-03-18T01:16:29.141Z,87.4
2019-03-18T01:17:29.041Z,87.4
2019-03-18T01:18:28.921Z,87.7
2019-03-18T01:19:28.815Z,87.9
2019-03-18T01:20:29.137Z,88.1
2019-03-18T01:21:29.063Z,88
2019-03-18T01:22:28.976Z,88.3
2019-03-18T01:23:28.875Z,88.3
2019-03-18T01:24:28.765Z,89
2019-03-18T01:25:28.687Z,88.4
2019-03-18T01:26:28.598Z,88.7
2019-03-18T01:27:28.526Z,88.2
2019-03-18T01:28:28.455Z,88.2
2019-03-18T01:29:28.415Z,88.7
2019-03-18T01:30:28.699Z,88.3
2019-03-18T01:31:28.597Z,88.9
2019-03-18T01:32:28.539Z,88.9
2019-03-18T01:33:28.494Z,88.4
2019-03-18T01:34:28.397Z,88.5
2019-03-18T01:35:28.289Z,88.8
2019-03-18T01:36:28.177Z,88.8
2019-03-18T01:37:28.079Z,88.5
2019-03-18T01:38:27.996Z,88.8
2019-03-18T01:39:27.890Z,88
2019-03-18T01:40:28.265Z,87.9
2019-03-18T01:41:28.173Z,88.3
2019-03-18T01:42:28.075Z,87.8
2019-03-18T01:43:27.985Z,87.8
2019-03-18T01:44:27.867Z,88
2019-03-18T01:45:41.705Z,87.8
2019-03-18T01:46:41.652Z,87.9
2019-03-18T01:47:41.532Z,87.5
2019-03-18T01:48:41.469Z,87.4
2019-03-18T01:49:41.369Z,87.6
2019-03-18T01:50:41.692Z,88.4
2019-03-18T01:51:41.653Z,86.9
2019-03-18T02:00:39.923Z,84.9
2019-03-18T02:01:39.809Z,85.4
2019-03-18T02:02:39.715Z,85.8
2019-03-18T02:03:39.667Z,85.8
2019-03-18T02:04:39.683Z,85.8
2019-03-18T02:05:39.688Z,86
2019-03-18T02:06:39.583Z,86
2019-03-18T02:07:39.562Z,86.2
2019-03-18T02:08:39.442Z,85.8
2019-03-18T02:09:39.339Z,85.9
2019-03-18T02:10:39.686Z,85.9
2019-03-18T02:11:39.572Z,86.4
2019-03-18T02:12:39.456Z,84.9
2019-03-18T02:30:35.835Z,83.1
2019-03-18T02:31:35.742Z,83.8
2019-03-18T02:32:35.648Z,84.2
2019-03-18T02:33:35.626Z,84.7
2019-03-18T02:34:35.535Z,85.5
2019-03-18T02:35:35.458Z,85.4
2019-03-18T02:36:35.428Z,85.2
2019-03-18T02:37:35.364Z,85.5
2019-03-18T02:38:35.267Z,85.7
2019-03-18T02:39:37.918Z,85.6
2019-03-18T02:40:38.294Z,86.5
2019-03-18T02:41:38.216Z,86.2
2019-03-18T02:42:38.144Z,86.5
2019-03-18T02:43:38.056Z,86.5
2019-03-18T02:44:37.969Z,87.2
2019-03-18T02:45:37.863Z,87
2019-03-18T02:46:37.805Z,87
2019-03-18T02:47:37.719Z,87.4
2019-03-18T02:48:37.632Z,87.4
2019-03-18T02:49:37.555Z,87.5
2019-03-18T02:50:37.959Z,87.9
2019-03-18T02:51:37.866Z,87.4
2019-03-18T02:52:37.877Z,87.5
2019-03-18T02:53:37.830Z,87.7
2019-03-18T02:54:37.796Z,87.4
2019-03-18T02:55:37.739Z,87.2
2019-03-18T02:56:37.794Z,87.5
2019-03-18T02:57:37.766Z,87.5
2019-03-18T02:58:37.667Z,87.5
2019-03-18T02:59:37.573Z,87.4
2019-03-18T03:00:37.952Z,87.9
2019-03-18T03:01:37.954Z,88
2019-03-18T03:02:37.871Z,87.7
2019-03-18T03:03:38.134Z,87.5
2019-03-18T03:04:38.137Z,87.6
2019-03-18T03:05:38.092Z,88.3
2019-03-18T03:06:38.000Z,88.3
2019-03-18T03:07:37.905Z,87.8
2019-03-18T03:08:37.833Z,88.6
2019-03-18T03:09:37.756Z,88.8
2019-03-18T03:10:38.165Z,87.9
2019-03-18T03:11:38.095Z,87.6
2019-03-18T03:12:38.049Z,87.4
2019-03-18T03:13:37.992Z,87.3
2019-03-18T03:14:37.917Z,87.4
2019-03-18T03:15:37.863Z,87.4
2019-03-18T03:16:37.764Z,87.2
2019-03-18T03:17:37.687Z,87.2
2019-03-18T03:18:37.604Z,87.4
2019-03-18T03:19:37.565Z,87.6
2019-03-18T03:20:37.890Z,87
2019-03-18T03:21:37.794Z,87.4
2019-03-18T03:22:37.712Z,87.4
2019-03-18T03:23:37.674Z,87.1
2019-03-18T03:24:37.623Z,87.2
2019-03-18T03:25:37.552Z,87.2
2019-03-18T03:26:37.444Z,87.1
2019-03-18T03:27:37.379Z,87.1
2019-03-18T03:28:37.335Z,87.1
2019-03-18T03:29:37.326Z,87.6
2019-03-18T03:30:37.807Z,87.5
2019-03-18T03:31:37.789Z,87.2
2019-03-18T03:32:37.828Z,87
2019-03-18T03:33:37.815Z,87.4
2019-03-18T03:34:37.994Z,87.7
2019-03-18T03:35:37.911Z,87.7
2019-03-18T03:36:37.808Z,87.4
2019-03-18T03:37:37.723Z,87.2
2019-03-18T03:38:37.645Z,87.5
2019-03-18T03:39:37.543Z,87.4
2019-03-18T03:40:37.901Z,87.4
2019-03-18T03:41:37.917Z,87.6
2019-03-18T03:42:37.932Z,87.6
2019-03-18T03:43:37.885Z,87.6
2019-03-18T03:44:37.833Z,87.8
2019-03-18T03:45:37.755Z,87.8
2019-03-18T03:46:44.705Z,87.8
2019-03-18T03:47:44.658Z,87.5
2019-03-18T03:48:44.592Z,87.7
2019-03-18T03:49:44.516Z,88.1
2019-03-18T03:50:45.087Z,88
2019-03-18T03:51:45.016Z,87.5
2019-03-18T04:00:43.667Z,85.1
2019-03-18T04:01:43.635Z,85.4
2019-03-18T04:02:43.566Z,86.1
2019-03-18T04:03:43.531Z,86
2019-03-18T04:04:43.458Z,86
2019-03-18T04:05:43.402Z,86.1
2019-03-18T04:06:43.373Z,86.3
2019-03-18T04:07:43.335Z,87.4
2019-03-18T04:08:43.250Z,86.5
2019-03-18T04:09:43.152Z,86.4
2019-03-18T04:10:43.660Z,86.7
2019-03-18T04:11:43.606Z,87
2019-03-18T04:12:43.552Z,87.4
2019-03-18T04:13:43.500Z,87.3
2019-03-18T04:14:43.423Z,87
2019-03-18T04:15:43.344Z,87.1
2019-03-18T04:17:03.212Z,87.2
2019-03-18T04:18:03.212Z,87.2
2019-03-18T04:19:03.171Z,87.4
2019-03-18T04:20:03.114Z,87.5
2019-03-18T04:21:03.492Z,87.5
2019-03-18T04:22:03.435Z,88
2019-03-18T04:23:03.463Z,88
2019-03-18T04:24:03.481Z,88.1
2019-03-18T04:25:03.426Z,88.2
2019-03-18T04:26:03.370Z,88.4
2019-03-18T04:27:03.415Z,88.2
2019-03-18T04:28:03.356Z,88
2019-03-18T04:29:03.451Z,88.3
2019-03-18T04:30:03.498Z,88.6
2019-03-18T04:31:04.008Z,88.2
2019-03-18T04:32:03.931Z,88.8
2019-03-18T04:33:03.952Z,88.7
2019-03-18T04:34:03.884Z,88.7
2019-03-18T04:35:03.841Z,88.7
2019-03-18T04:36:03.758Z,88.7
2019-03-18T04:37:03.701Z,88.7
2019-03-18T04:38:03.623Z,88.5
2019-03-18T04:39:03.527Z,89
2019-03-18T04:40:03.488Z,88.7
2019-03-18T04:41:03.870Z,88.6
2019-03-18T04:42:03.784Z,88
2019-03-18T04:51:14.623Z,85.2
2019-03-18T04:52:14.505Z,86
2019-03-18T04:53:14.409Z,86
2019-03-18T04:54:14.304Z,86.1
2019-03-18T04:55:14.216Z,86.3
2019-03-18T04:56:14.107Z,86.6
2019-03-18T04:57:13.998Z,86.9
2019-03-18T04:58:13.899Z,87.1
2019-03-18T04:59:13.807Z,87.2
2019-03-18T05:00:13.711Z,87.4
2019-03-18T05:01:14.148Z,87.4
2019-03-18T05:02:17.245Z,86.9
2019-03-18T05:03:17.154Z,87.3
2019-03-18T05:11:15.691Z,84.3
2019-03-18T05:12:15.628Z,85.1
2019-03-18T05:13:15.525Z,85.8
2019-03-18T05:14:15.497Z,85.8
2019-03-18T05:15:15.380Z,86
2019-03-18T05:16:15.268Z,86.2
2019-03-18T05:17:27.655Z,86
2019-03-18T05:18:27.583Z,86.6
2019-03-18T05:19:27.539Z,86.8
2019-03-18T05:20:27.449Z,87.2
2019-03-18T05:21:27.783Z,87.2
2019-03-18T05:22:27.676Z,87.3
2019-03-18T05:23:27.587Z,87.4
2019-03-18T05:24:27.482Z,87.6
2019-03-18T05:25:27.388Z,87.4
2019-03-18T05:26:27.275Z,87.4
2019-03-18T05:27:27.185Z,87.1
2019-03-18T05:28:27.088Z,87.1
2019-03-18T05:29:27.059Z,87.3
2019-03-18T05:30:26.981Z,87.6
2019-03-18T05:31:27.284Z,87.7
2019-03-18T05:32:27.225Z,87.2
2019-03-18T05:41:25.652Z,84.8
2019-03-18T05:42:25.572Z,85.4
2019-03-18T05:43:25.461Z,85.8
2019-03-18T05:44:25.386Z,86.2
2019-03-18T05:45:25.387Z,86.2
2019-03-18T05:46:25.272Z,86
2019-03-18T05:47:25.175Z,85.9
2019-03-18T05:48:25.215Z,85.9
2019-03-18T05:49:25.177Z,86.3
2019-03-18T05:50:25.117Z,85.8
2019-03-18T05:51:25.399Z,86.7
2019-03-18T05:52:25.293Z,86.7
2019-03-18T05:53:25.199Z,86.7
2019-03-18T05:54:25.095Z,86.2
2019-03-18T05:55:24.993Z,85.9
2019-03-18T05:56:24.897Z,85.7
2019-03-18T05:57:26.890Z,85.8
2019-03-18T05:58:26.773Z,85.9
2019-03-18T05:59:26.655Z,85.8
2019-03-18T06:00:26.552Z,85.9
2019-03-18T06:01:26.846Z,85.6
2019-03-18T06:02:26.733Z,86.2
2019-03-18T06:03:26.649Z,86.5
2019-03-18T06:04:26.577Z,86.9
2019-03-18T06:05:26.481Z,86.9
2019-03-18T06:06:26.370Z,86.9
2019-03-18T06:07:26.269Z,86.9
2019-03-18T06:08:26.177Z,86.8
2019-03-18T06:09:26.181Z,86.9
2019-03-18T06:10:26.071Z,86.9
2019-03-18T06:11:26.380Z,87.1
2019-03-18T06:12:26.292Z,87.1
2019-03-18T06:13:26.193Z,87.1
2019-03-18T06:14:26.120Z,87
2019-03-18T06:15:26.005Z,86.8
2019-03-18T06:16:25.945Z,86.6
2019-03-18T06:17:25.984Z,86.9
2019-03-18T06:18:25.879Z,86.9
2019-03-18T06:19:25.782Z,87
2019-03-18T06:20:25.745Z,87
2019-03-18T06:21:26.085Z,86.8
2019-03-18T06:22:25.987Z,87.6
2019-03-18T06:23:25.871Z,87.2
2019-03-18T06:24:25.808Z,86.9
2019-03-18T06:25:25.890Z,86.7
2019-03-18T06:26:25.839Z,87
2019-03-18T06:27:25.961Z,87.1
2019-03-18T06:28:25.862Z,87.1
2019-03-18T06:29:28.135Z,87
2019-03-18T06:30:28.049Z,87.3
2019-03-18T06:31:28.375Z,86.8
2019-03-18T06:41:26.329Z,83.8
2019-03-18T06:42:26.271Z,84.7
2019-03-18T06:43:26.172Z,84.7
2019-03-18T06:44:26.089Z,84.7
2019-03-18T06:45:25.989Z,85.4
2019-03-18T06:46:25.926Z,85.1
2019-03-18T06:47:28.751Z,84.9
2019-03-18T06:48:28.647Z,85.2
2019-03-18T06:49:28.524Z,86.1
2019-03-18T06:50:28.514Z,86.6
2019-03-18T06:51:28.829Z,86.9
2019-03-18T06:52:28.739Z,87.2
2019-03-18T06:53:28.665Z,87.5
2019-03-18T06:54:28.651Z,87.4
2019-03-18T06:55:28.570Z,87.6
2019-03-18T06:56:28.483Z,86.9
2019-03-18T06:57:28.387Z,87.2
2019-03-18T06:58:28.273Z,86.7
2019-03-18T06:59:28.167Z,86.7
2019-03-18T07:00:28.064Z,86.8
2019-03-18T07:01:28.412Z,86.6
2019-03-18T07:02:28.318Z,85.4
2019-03-18T07:03:28.214Z,85.3
2019-03-18T07:04:28.119Z,84.8
2019-03-18T07:05:28.029Z,85.3
2019-03-18T07:06:27.966Z,86
2019-03-18T07:07:27.867Z,85.4
2019-03-18T07:08:27.800Z,85.8
2019-03-18T07:09:27.683Z,85.9
2019-03-18T07:10:27.588Z,86
2019-03-18T07:11:28.020Z,85.9
2019-03-18T07:12:27.950Z,86
2019-03-18T07:13:27.852Z,86.3
2019-03-18T07:14:27.748Z,87
2019-03-18T07:15:27.646Z,86.7
2019-03-18T07:16:27.548Z,87.1
2019-03-18T07:17:27.478Z,86.5
2019-03-18T07:18:27.359Z,86.7
2019-03-18T07:19:27.264Z,86.2
2019-03-18T07:20:27.158Z,86.4
2019-03-18T07:21:27.505Z,86.7
2019-03-18T07:22:27.422Z,86.8
2019-03-18T07:23:27.346Z,86.9
2019-03-18T07:24:27.253Z,87.1
2019-03-18T07:25:27.154Z,86.7
2019-03-18T07:26:27.075Z,86.7
2019-03-18T07:27:27.008Z,87
2019-03-18T07:28:26.924Z,87.2
2019-03-18T07:29:26.837Z,87.4
2019-03-18T07:30:26.770Z,87.1
2019-03-18T07:31:27.077Z,87.6
2019-03-18T07:32:26.986Z,86.8
2019-03-18T07:33:26.914Z,87.2
2019-03-18T07:34:26.812Z,87.4
2019-03-18T07:35:26.720Z,87.4
2019-03-18T07:36:26.630Z,87.1
2019-03-18T07:37:26.554Z,87.5
2019-03-18T07:38:26.549Z,87.3
2019-03-18T07:39:26.492Z,86.5
2019-03-18T07:40:26.541Z,86.5
2019-03-18T07:41:27.016Z,87.4
2019-03-18T07:42:26.904Z,86.9
2019-03-18T07:51:31.811Z,83.8
2019-03-18T07:52:31.710Z,84
2019-03-18T07:53:31.589Z,83.8
2019-03-18T07:54:33.934Z,84.5
2019-03-18T07:55:33.840Z,84.5
2019-03-18T07:56:33.730Z,84.9
2019-03-18T07:57:33.636Z,84.5
2019-03-18T07:58:33.550Z,84.1
2019-03-18T07:59:33.477Z,84.3
2019-03-18T08:00:33.446Z,83.9
2019-03-18T08:01:34.015Z,82.9
2019-03-18T08:02:33.918Z,83.4
2019-03-18T08:03:36.949Z,83.9
2019-03-18T08:04:38.812Z,84
2019-03-18T08:05:38.733Z,84.2
2019-03-18T08:06:38.632Z,84.9
2019-03-18T08:07:38.536Z,85.5
2019-03-18T08:08:39.230Z,85.3
2019-03-18T08:09:39.632Z,85.3
2019-03-18T08:10:39.524Z,84.9
2019-03-18T08:11:39.889Z,85.2
2019-03-18T08:12:39.799Z,85.8
2019-03-18T08:13:42.270Z,84.6
2019-03-18T08:21:43.940Z,82.2
2019-03-18T08:22:43.856Z,82.6
2019-03-18T08:23:43.784Z,82
2019-03-18T08:24:43.682Z,82
2019-03-18T08:25:43.586Z,82.1
2019-03-18T08:26:43.513Z,82.3
2019-03-18T08:27:43.435Z,82
2019-03-18T08:28:43.354Z,82.3
2019-03-18T08:29:43.236Z,83.3
2019-03-18T08:30:43.144Z,82.7
2019-03-18T08:31:43.502Z,83
2019-03-18T08:32:43.454Z,83.1
2019-03-18T08:33:43.363Z,83.6
2019-03-18T08:34:43.265Z,83.6
2019-03-18T08:35:43.186Z,83.5
2019-03-18T08:36:43.088Z,83.7
2019-03-18T08:37:42.997Z,83.6
2019-03-18T08:38:42.899Z,82.7
2019-03-18T08:39:42.994Z,82.4
2019-03-18T08:40:42.918Z,82.4
2019-03-18T08:41:43.252Z,83.3
2019-03-18T08:42:43.174Z,82.5
2019-03-18T08:43:43.082Z,82.7
2019-03-18T08:44:42.984Z,83.2
2019-03-18T08:45:42.918Z,82.9
2019-03-18T08:46:42.805Z,82.8
2019-03-18T08:47:42.713Z,82.3
2019-03-18T08:48:56.173Z,83.2
2019-03-18T08:49:56.226Z,82.8
2019-03-18T08:50:56.168Z,83.2
2019-03-18T08:51:56.564Z,82.9
2019-03-18T08:52:56.460Z,82.9
2019-03-18T08:53:56.350Z,82.8
2019-03-18T08:54:56.340Z,83.2
2019-03-18T08:55:56.238Z,81.7
2019-03-18T08:56:56.171Z,82.1
2019-03-18T08:57:56.143Z,82.3
2019-03-18T08:58:56.041Z,82.8
2019-03-18T08:59:55.940Z,83.2
2019-03-18T09:00:55.829Z,82.1
2019-03-18T09:01:56.248Z,81.7
2019-03-18T09:02:57.125Z,82.1
2019-03-18T09:03:57.022Z,81.9
2019-03-18T09:04:56.923Z,81.1
2019-03-18T09:05:56.812Z,80.8
2019-03-18T09:06:56.732Z,80.5
2019-03-18T09:07:56.646Z,79.8
2019-03-18T09:08:56.556Z,78.9
2019-03-18T09:09:56.526Z,80.2
2019-03-18T09:10:56.404Z,81
2019-03-18T09:11:56.763Z,79.9
2019-03-18T09:12:56.679Z,79.8
2019-03-18T09:13:56.594Z,80.7
2019-03-18T09:22:08.976Z,76.1
2019-03-18T09:23:08.910Z,76.5
2019-03-18T09:24:08.874Z,76.3
2019-03-18T09:25:08.805Z,76.3
2019-03-18T09:26:08.724Z,75.8
2019-03-18T09:27:08.640Z,77.4
2019-03-18T09:28:08.562Z,78.7
2019-03-18T09:29:08.467Z,79.6
2019-03-18T09:30:08.400Z,80.7
2019-03-18T09:31:08.526Z,81.2
2019-03-18T09:32:08.983Z,82.1
2019-03-18T09:33:08.903Z,82.8
2019-03-18T09:34:08.784Z,83.2
2019-03-18T09:35:08.679Z,83.4
2019-03-18T09:36:08.576Z,83.7
2019-03-18T09:37:08.457Z,84.3
2019-03-18T09:38:08.373Z,84.9
2019-03-18T09:39:08.271Z,84.8
2019-03-18T09:40:08.151Z,85
2019-03-18T09:41:08.479Z,85
2019-03-18T09:42:11.851Z,84.9
2019-03-18T09:43:11.782Z,84.8
2019-03-18T09:44:11.681Z,85.4
2019-03-18T09:45:11.567Z,85.6
2019-03-18T09:46:11.464Z,86.1
2019-03-18T09:47:11.351Z,86.3
2019-03-18T09:48:11.241Z,86.5
2019-03-18T09:49:22.772Z,86.1
2019-03-18T09:50:22.692Z,86.7
2019-03-18T09:51:22.626Z,86.7
2019-03-18T09:52:23.072Z,86.9
2019-03-18T09:53:22.969Z,87.5
2019-03-18T09:54:22.909Z,88.9
2019-03-18T09:55:22.829Z,88.5
2019-03-18T09:56:22.733Z,88.4
2019-03-18T09:57:27.181Z,88.4
2019-03-18T09:58:27.067Z,88.1
2019-03-18T09:59:26.974Z,88.4
2019-03-18T10:00:26.906Z,88.5
2019-03-18T10:01:26.879Z,88.5
2019-03-18T10:02:27.274Z,89.2
2019-03-18T10:03:27.216Z,88.6
2019-03-18T10:12:25.544Z,84.9
2019-03-18T10:13:25.446Z,85.6
2019-03-18T10:14:25.359Z,85
2019-03-18T10:15:25.275Z,85.7
2019-03-18T10:16:25.185Z,85.7
2019-03-18T10:17:25.092Z,86.1
2019-03-18T10:18:25.170Z,87.1
2019-03-18T10:19:34.487Z,86.8
2019-03-18T10:20:34.436Z,86.8
2019-03-18T10:21:34.413Z,87.1
2019-03-18T10:22:36.751Z,86.9
2019-03-18T10:23:36.681Z,87.5
2019-03-18T10:24:36.580Z,87
2019-03-18T10:25:36.497Z,86.2
2019-03-18T10:26:36.405Z,86.6
2019-03-18T10:27:38.673Z,87.5
2019-03-18T10:28:38.569Z,87.4
2019-03-18T10:29:38.464Z,86.9
2019-03-18T10:30:38.385Z,87.6
2019-03-18T10:31:38.308Z,86.9
2019-03-18T10:32:38.605Z,86.5
2019-03-18T10:33:38.495Z,87.3
2019-03-18T10:34:38.381Z,86.7
2019-03-18T10:35:38.279Z,86.7
2019-03-18T10:36:38.209Z,87.2
2019-03-18T10:37:38.103Z,87.4
2019-03-18T10:38:37.987Z,86.7
2019-03-18T10:39:37.876Z,87
2019-03-18T10:40:37.779Z,87.9
2019-03-18T10:41:37.706Z,87.7
2019-03-18T10:42:38.031Z,86.8
2019-03-18T10:43:37.930Z,86.9
2019-03-18T10:44:37.835Z,86.7
2019-03-18T10:45:37.737Z,87
2019-03-18T10:46:37.645Z,87.4
2019-03-18T10:47:37.554Z,86.3
2019-03-18T10:48:37.447Z,86.6
2019-03-18T10:49:47.194Z,86
2019-03-18T10:50:47.121Z,85.4
2019-03-18T10:51:49.101Z,85.8
2019-03-18T10:52:49.545Z,86.5
2019-03-18T10:53:49.620Z,86.1
2019-03-18T11:02:48.074Z,83
2019-03-18T11:03:47.975Z,82.9
2019-03-18T11:04:47.883Z,81.5
2019-03-18T11:05:47.771Z,82.3
2019-03-18T11:06:47.665Z,83.9
2019-03-18T11:07:47.594Z,84
2019-03-18T11:08:47.504Z,83.8
2019-03-18T11:09:47.410Z,83.3
2019-03-18T11:10:47.321Z,83
2019-03-18T11:11:47.223Z,83.6
2019-03-18T11:12:47.573Z,83.4
2019-03-18T11:13:47.503Z,82.7
2019-03-18T11:14:47.439Z,83.2
2019-03-18T11:15:47.353Z,80.8
2019-03-18T11:16:47.255Z,81.2
2019-03-18T11:21:58.929Z,78.4
2019-03-18T11:22:59.312Z,76.7
2019-03-18T11:26:58.446Z,77.1
2019-03-18T11:27:58.421Z,75.8
2019-03-18T11:28:58.375Z,75.9
2019-03-18T11:30:58.031Z,73.6
2019-03-18T11:31:57.927Z,74.1
2019-03-18T11:33:58.007Z,73.8
2019-03-18T11:34:57.899Z,73.2
2019-03-18T11:37:57.261Z,73
2019-03-18T11:38:57.168Z,74
2019-03-18T11:40:56.807Z,75.1
2019-03-18T11:42:56.859Z,73.2
2019-03-18T11:43:56.779Z,73.7
2019-03-18T11:44:56.683Z,74.4
2019-03-18T11:45:56.591Z,74.9
2019-03-18T11:46:56.540Z,74.8
2019-03-18T11:47:56.442Z,74.6
2019-03-18T11:48:56.347Z,75.2
2019-03-18T11:49:56.282Z,75
2019-03-18T11:50:56.179Z,74.3
2019-03-18T11:51:56.104Z,74.4
2019-03-18T11:52:56.436Z,74
2019-03-18T11:53:56.355Z,74.6
2019-03-18T11:54:56.257Z,73.8
2019-03-18T11:55:56.189Z,73.9
2019-03-18T11:56:56.082Z,73.8
2019-03-18T11:57:55.979Z,72.3
2019-03-18T11:58:55.912Z,73.4
2019-03-18T11:59:55.809Z,72.9
2019-03-18T12:00:55.821Z,73
2019-03-18T12:01:55.709Z,73.8
2019-03-18T12:02:58.260Z,73.6
2019-03-18T12:03:58.148Z,74
2019-03-18T12:04:58.494Z,73.8
2019-03-18T12:05:58.405Z,73.8
2019-03-18T12:06:58.311Z,70.4
2019-03-18T12:07:58.283Z,70.9
2019-03-18T12:08:58.188Z,71.1
2019-03-18T12:09:58.081Z,70.7
2019-03-18T12:10:58.004Z,70.7
2019-03-18T12:12:58.077Z,68.5
2019-03-18T12:13:57.979Z,69.5
2019-03-18T12:14:57.865Z,70.1
2019-03-18T12:15:57.759Z,70.4
2019-03-18T12:16:57.685Z,71
2019-03-18T12:17:57.609Z,69.6
2019-03-18T12:18:57.542Z,70.1
2019-03-18T12:19:57.458Z,70.1
2019-03-18T12:20:57.357Z,70
2019-03-18T12:21:57.267Z,69.9
2019-03-18T12:22:57.619Z,70.1
2019-03-18T12:23:57.533Z,69.9
2019-03-18T12:24:57.436Z,70.5
2019-03-18T12:25:57.378Z,70.2
2019-03-18T12:27:57.023Z,69.5
2019-03-18T12:28:56.928Z,68.6
2019-03-18T12:30:56.613Z,68.1
2019-03-18T12:32:56.705Z,68
2019-03-18T12:33:58.214Z,67.5
2019-03-18T12:34:58.142Z,66.7
2019-03-18T12:35:58.039Z,67.2
2019-03-18T12:36:58.011Z,68.1
2019-03-18T12:37:57.935Z,68.1
2019-03-18T12:38:57.832Z,66.9
2019-03-18T12:39:57.730Z,66.7
2019-03-18T12:40:57.629Z,67.2
2019-03-18T12:42:57.710Z,66.7
2019-03-18T12:43:57.604Z,68
2019-03-18T12:44:57.523Z,69
2019-03-18T12:45:57.430Z,68.7
2019-03-18T12:46:57.350Z,68.6
2019-03-18T12:47:57.244Z,67.9
2019-03-18T12:48:57.161Z,68.4
2019-03-18T12:49:57.065Z,67.2
2019-03-18T12:50:57.547Z,68.8
2019-03-18T12:51:57.468Z,69.3
2019-03-18T12:52:57.875Z,69.6
2019-03-18T12:53:57.792Z,69.2
2019-03-18T12:54:57.687Z,70.7
2019-03-18T12:55:57.603Z,70.2
2019-03-18T12:56:57.504Z,69.2
2019-03-18T12:57:57.405Z,68.9
2019-03-18T12:58:57.353Z,68.6
2019-03-18T12:59:57.246Z,67
2019-03-18T13:00:57.142Z,67.5
2019-03-18T13:01:57.031Z,68.1
2019-03-18T13:02:57.492Z,68.3
2019-03-18T13:03:57.397Z,68.5
2019-03-18T13:04:57.333Z,67.6
2019-03-18T13:05:57.231Z,65.8
2019-03-18T13:06:57.140Z,65.1
2019-03-18T13:07:57.053Z,65.6
2019-03-18T13:08:56.948Z,66
2019-03-18T13:09:56.862Z,65.3
2019-03-18T13:10:56.771Z,63.6
2019-03-18T13:11:56.667Z,63.6
2019-03-18T13:12:57.228Z,62.6
2019-03-18T13:13:57.121Z,64
2019-03-18T13:14:57.015Z,65
2019-03-18T13:15:56.968Z,65.5
2019-03-18T13:16:56.864Z,64.7
2019-03-18T13:18:56.533Z,63.7
2019-03-18T13:19:56.446Z,63.3
2019-03-18T13:21:08.914Z,63.4
2019-03-18T13:22:08.820Z,64.5
2019-03-18T13:23:09.176Z,66.5
2019-03-18T13:25:08.798Z,69.2
2019-03-18T13:26:08.728Z,69.9
2019-03-18T13:28:08.340Z,70.6
2019-03-18T13:29:08.267Z,71
2019-03-18T13:30:08.188Z,71
2019-03-18T13:31:08.114Z,71.4
2019-03-18T13:32:08.005Z,72.3
2019-03-18T13:33:08.353Z,72.3
2019-03-18T13:35:08.000Z,72.5
2019-03-18T13:36:07.921Z,72
2019-03-18T13:37:07.810Z,72
2019-03-18T13:38:07.735Z,71.8
2019-03-18T13:39:07.640Z,72.1
2019-03-18T13:40:07.570Z,72.7
2019-03-18T13:41:07.516Z,72.1
2019-03-18T13:42:07.418Z,71.4
2019-03-18T13:43:07.746Z,71.7
2019-03-18T13:44:07.635Z,73
2019-03-18T13:45:07.552Z,73.5
2019-03-18T13:46:07.460Z,73.8
2019-03-18T13:47:07.368Z,74.8
2019-03-18T13:48:07.257Z,74.6
2019-03-18T13:49:07.167Z,74.7
2019-03-18T13:50:07.070Z,74.8
2019-03-18T13:51:19.954Z,75.7
2019-03-18T13:52:21.256Z,75.6
2019-03-18T13:53:21.588Z,75.5
2019-03-18T13:54:21.473Z,75.2
2019-03-18T13:55:21.367Z,75.6
2019-03-18T13:56:21.324Z,74.5
2019-03-18T13:57:21.244Z,72.4
2019-03-18T13:58:21.182Z,71.6
2019-03-18T14:00:20.807Z,71.6
2019-03-18T14:01:20.709Z,71.6
2019-03-18T14:03:20.954Z,72.2
2019-03-18T14:04:20.836Z,72.5
2019-03-18T14:05:20.728Z,71.5
2019-03-18T14:06:20.659Z,71.4
2019-03-18T14:07:23.119Z,71.7
2019-03-18T14:08:23.046Z,72
2019-03-18T14:09:22.946Z,71.8
2019-03-18T14:10:22.904Z,72
2019-03-18T14:11:22.862Z,72.3
2019-03-18T14:12:22.800Z,72.7
2019-03-18T14:13:23.126Z,72.6
2019-03-18T14:14:23.068Z,72.5
2019-03-18T14:15:23.028Z,72.8
2019-03-18T14:16:22.937Z,72.8
2019-03-18T14:17:22.825Z,72.5
2019-03-18T14:18:22.887Z,72.5
2019-03-18T14:19:22.775Z,72.3
2019-03-18T14:20:22.671Z,71.9
2019-03-18T14:21:34.248Z,72
2019-03-18T14:22:34.139Z,72.3
2019-03-18T14:23:34.527Z,71.7
2019-03-18T14:24:34.420Z,71.9
2019-03-18T14:25:34.387Z,70.7
2019-03-18T14:26:34.302Z,70.8
2019-03-18T14:29:33.713Z,70.7
2019-03-18T14:33:33.294Z,71.2
2019-03-18T14:34:33.175Z,71.8
2019-03-18T14:35:33.073Z,72.5
2019-03-18T14:36:32.966Z,72.8
2019-03-18T14:37:32.989Z,72.5
2019-03-18T14:38:32.893Z,72.3
2019-03-18T14:39:32.809Z,72.4
2019-03-18T14:40:32.748Z,72.4
2019-03-18T14:41:32.671Z,72.6
2019-03-18T14:42:32.551Z,72.3
2019-03-18T14:43:32.955Z,72.1
2019-03-18T14:44:33.908Z,71.9
2019-03-18T14:45:33.793Z,72.5
2019-03-18T14:46:33.704Z,71.1
2019-03-18T14:47:33.590Z,70.9
2019-03-18T14:48:33.503Z,71.7
2019-03-18T14:49:33.410Z,71.7
2019-03-18T14:50:33.325Z,71.5
2019-03-18T14:51:46.750Z,71.2
2019-03-18T14:52:46.666Z,71.2
2019-03-18T14:53:47.026Z,71.3
2019-03-18T14:54:46.954Z,71.4
2019-03-18T14:55:46.885Z,71.5
2019-03-18T14:56:46.777Z,71.4
2019-03-18T14:57:46.668Z,71.8
2019-03-18T14:58:46.595Z,71.3
2019-03-18T14:59:46.495Z,70.8
2019-03-18T15:00:46.427Z,70.9
2019-03-18T15:01:46.395Z,71.2
2019-03-18T15:02:46.292Z,70.9
2019-03-18T15:03:46.667Z,70.8
2019-03-18T15:04:46.577Z,69.2
2019-03-18T15:05:46.472Z,69.5
2019-03-18T15:06:46.413Z,69
2019-03-18T15:09:45.789Z,67
2019-03-18T15:13:45.327Z,66.2
2019-03-18T15:14:45.256Z,66.2
2019-03-18T15:15:45.181Z,66.9
2019-03-18T15:16:45.082Z,67.6
2019-03-18T15:17:45.031Z,68.5
2019-03-18T15:18:44.925Z,68.4
2019-03-18T15:19:44.827Z,68.9
2019-03-18T15:20:44.733Z,68.5
2019-03-18T15:21:44.639Z,67.2
2019-03-18T15:22:44.563Z,66.7
2019-03-18T15:23:44.875Z,67.5
2019-03-18T15:24:44.763Z,67.5
2019-03-18T15:25:44.677Z,66.7
2019-03-18T15:26:44.566Z,67.5
2019-03-18T15:27:44.491Z,67.5
2019-03-18T15:28:44.383Z,68
2019-03-18T15:29:44.293Z,68.2
2019-03-18T15:30:44.185Z,68.4
2019-03-18T15:31:44.159Z,67.7
2019-03-18T15:32:44.077Z,68.1
2019-03-18T15:33:44.470Z,68.4
2019-03-18T15:34:44.356Z,68.7
2019-03-18T15:35:44.288Z,68.2
2019-03-18T15:36:44.209Z,67.6
2019-03-18T15:37:44.109Z,68.1
2019-03-18T15:38:44.038Z,68.1
2019-03-18T15:39:43.963Z,67.2
2019-03-18T15:40:43.946Z,67.8
2019-03-18T15:41:43.854Z,68.2
2019-03-18T15:42:43.761Z,68.1
2019-03-18T15:43:44.135Z,68.3
2019-03-18T15:44:44.049Z,68.7
2019-03-18T15:45:43.953Z,68.7